Archival Weather

Granbury Rgnl

Granbury, Texas (KGDJ)

Report from: Monday, January 29, 2024 4:35 PM UTC
Current time: Tuesday, June 18, 2024 12:55 PM UTC

Current weather – Weather history – Daily summaries
Weather forecast

Temperature13.1°C (55.6°F)
Dew point5.6°C (42.1°F)
Winds 4 kts (2.1 m/s, 4.6 mph) North (10°)
Visibility10 mi. (16.1 km)
Clouds Sky clear
Altimeter30.34 in.Hg (1027 mB)
Relative humidity60 %
Density altitude-570 ft. (-174 m)
Remarks Fully automated report
Automated weather observing station with precipitation discriminator
Flight conditions Visual Meteorological Conditions
Raw dataKGDJ 291635Z AUTO 01004KT 10SM CLR 13/06 A3034 RMK AO2 T01310056
An error has occurred. This application may no longer respond until reloaded. Reload 🗙